sensor_id;sensor_type;location;lat;lon;timestamp;pressure;altitude;pressure_sealevel;temperature
48854;BMP280;34673;52.808;17.856;2024-02-26T00:01:58;99416.44;;;4.24
48854;BMP280;34673;52.808;17.856;2024-02-26T00:04:25;99411.31;;;4.21
48854;BMP280;34673;52.808;17.856;2024-02-26T00:06:52;99413.88;;;4.21
48854;BMP280;34673;52.808;17.856;2024-02-26T00:09:21;99414.72;;;4.17
48854;BMP280;34673;52.808;17.856;2024-02-26T00:11:48;99410.44;;;4.14
48854;BMP280;34673;52.808;17.856;2024-02-26T00:14:16;99401.03;;;4.09
48854;BMP280;34673;52.808;17.856;2024-02-26T00:16:43;99412.13;;;4.12
48854;BMP280;34673;52.808;17.856;2024-02-26T00:19:12;99401.03;;;4.09
48854;BMP280;34673;52.808;17.856;2024-02-26T00:21:40;99402.72;;;4.04
48854;BMP280;34673;52.808;17.856;2024-02-26T00:24:09;99406.13;;;4.01
48854;BMP280;34673;52.808;17.856;2024-02-26T00:26:36;99413.78;;;3.98
48854;BMP280;34673;52.808;17.856;2024-02-26T00:29:03;99406.97;;;3.95
48854;BMP280;34673;52.808;17.856;2024-02-26T00:31:30;99406.09;;;3.93
48854;BMP280;34673;52.808;17.856;2024-02-26T00:33:58;99407.81;;;3.91
48854;BMP280;34673;52.808;17.856;2024-02-26T00:36:26;99412.06;;;3.89
48854;BMP280;34673;52.808;17.856;2024-02-26T00:38:53;99415.47;;;3.87
48854;BMP280;34673;52.808;17.856;2024-02-26T00:41:20;99413.75;;;3.81
48854;BMP280;34673;52.808;17.856;2024-02-26T00:43:48;99406.91;;;3.78
48854;BMP280;34673;52.808;17.856;2024-02-26T00:46:15;99417.16;;;3.82
48854;BMP280;34673;52.808;17.856;2024-02-26T00:48:42;99421.41;;;3.81
48854;BMP280;34673;52.808;17.856;2024-02-26T00:51:10;99422.25;;;3.78
48854;BMP280;34673;52.808;17.856;2024-02-26T00:53:37;99412.84;;;3.70
48854;BMP280;34673;52.808;17.856;2024-02-26T00:56:05;99423.06;;;3.70
48854;BMP280;34673;52.808;17.856;2024-02-26T00:58:32;99424.75;;;3.68
48854;BMP280;34673;52.808;17.856;2024-02-26T01:00:59;99414.53;;;3.68
48854;BMP280;34673;52.808;17.856;2024-02-26T01:03:26;99418.75;;;3.58
48854;BMP280;34673;52.808;17.856;2024-02-26T01:05:54;99411.06;;;3.53
48854;BMP280;34673;52.808;17.856;2024-02-26T01:08:25;99408.47;;;3.52
48854;BMP280;34673;52.808;17.856;2024-02-26T01:10:52;99412.78;;;3.61
48854;BMP280;34673;52.808;17.856;2024-02-26T01:13:19;99409.41;;;3.62
48854;BMP280;34673;52.808;17.856;2024-02-26T01:15:46;99403.41;;;3.58
48854;BMP280;34673;52.808;17.856;2024-02-26T01:18:13;99403.38;;;3.55
48854;BMP280;34673;52.808;17.856;2024-02-26T01:20:41;99400.81;;;3.50
48854;BMP280;34673;52.808;17.856;2024-02-26T01:23:08;99393.97;;;3.45
48854;BMP280;34673;52.808;17.856;2024-02-26T01:25:35;99389.66;;;3.38
48854;BMP280;34673;52.808;17.856;2024-02-26T01:28:04;99392.22;;;3.39
48854;BMP280;34673;52.808;17.856;2024-02-26T01:30:31;99388.81;;;3.34
48854;BMP280;34673;52.808;17.856;2024-02-26T01:32:59;99397.31;;;3.39
48854;BMP280;34673;52.808;17.856;2024-02-26T01:35:26;99400.75;;;3.41
48854;BMP280;34673;52.808;17.856;2024-02-26T01:37:53;99392.22;;;3.39
48854;BMP280;34673;52.808;17.856;2024-02-26T01:40:20;99405.88;;;3.44
48854;BMP280;34673;52.808;17.856;2024-02-26T01:42:48;99405.03;;;3.41
48854;BMP280;34673;52.808;17.856;2024-02-26T01:45:16;99405.00;;;3.35
48854;BMP280;34673;52.808;17.856;2024-02-26T01:47:52;99404.09;;;3.28
48854;BMP280;34673;52.808;17.856;2024-02-26T01:50:20;99394.66;;;3.19
48854;BMP280;34673;52.808;17.856;2024-02-26T01:52:50;99402.34;;;3.21
48854;BMP280;34673;52.808;17.856;2024-02-26T01:55:18;99405.72;;;3.17
48854;BMP280;34673;52.808;17.856;2024-02-26T01:57:49;99403.19;;;3.15
48854;BMP280;34673;52.808;17.856;2024-02-26T02:00:20;99400.56;;;3.07
48854;BMP280;34673;52.808;17.856;2024-02-26T02:02:49;99412.47;;;3.08
48854;BMP280;34673;52.808;17.856;2024-02-26T02:05:17;99409.09;;;3.09
48854;BMP280;34673;52.808;17.856;2024-02-26T02:07:47;99415.91;;;3.07
48854;BMP280;34673;52.808;17.856;2024-02-26T02:10:16;99417.56;;;3.05
48854;BMP280;34673;52.808;17.856;2024-02-26T02:12:45;99422.66;;;3.02
48854;BMP280;34673;52.808;17.856;2024-02-26T02:15:12;99424.38;;;3.03
48854;BMP280;34673;52.808;17.856;2024-02-26T02:17:40;99424.38;;;3.03
48854;BMP280;34673;52.808;17.856;2024-02-26T02:20:15;99419.31;;;3.09
48854;BMP280;34673;52.808;17.856;2024-02-26T02:22:45;99412.47;;;3.08
48854;BMP280;34673;52.808;17.856;2024-02-26T02:25:12;99426.16;;;3.14
48854;BMP280;34673;52.808;17.856;2024-02-26T02:27:40;99424.44;;;3.13
48854;BMP280;34673;52.808;17.856;2024-02-26T02:30:08;99432.94;;;3.08
48854;BMP280;34673;52.808;17.856;2024-02-26T02:32:37;99432.88;;;3.02
48854;BMP280;34673;52.808;17.856;2024-02-26T02:35:06;99424.28;;;2.91
48854;BMP280;34673;52.808;17.856;2024-02-26T02:37:34;99424.19;;;2.82
48854;BMP280;34673;52.808;17.856;2024-02-26T02:40:01;99427.59;;;2.78
48854;BMP280;34673;52.808;17.856;2024-02-26T02:42:28;99424.16;;;2.76
48854;BMP280;34673;52.808;17.856;2024-02-26T02:44:56;99424.09;;;2.70
48854;BMP280;34673;52.808;17.856;2024-02-26T02:47:23;99424.16;;;2.76
48854;BMP280;34673;52.808;17.856;2024-02-26T02:49:50;99419.03;;;2.73
48854;BMP280;34673;52.808;17.856;2024-02-26T02:52:17;99428.38;;;2.74
48854;BMP280;34673;52.808;17.856;2024-02-26T02:54:45;99421.56;;;2.73
48854;BMP280;34673;52.808;17.856;2024-02-26T02:57:13;99441.19;;;2.77
48854;BMP280;34673;52.808;17.856;2024-02-26T02:59:41;99439.50;;;2.79
48854;BMP280;34673;52.808;17.856;2024-02-26T03:02:08;99436.09;;;2.78
48854;BMP280;34673;52.808;17.856;2024-02-26T03:04:35;99432.69;;;2.78
48854;BMP280;34673;52.808;17.856;2024-02-26T03:07:03;99425.75;;;2.64
48854;BMP280;34673;52.808;17.856;2024-02-26T03:09:30;99435.13;;;2.64
48854;BMP280;34673;52.808;17.856;2024-02-26T03:11:57;99432.50;;;2.58
48854;BMP280;34673;52.808;17.856;2024-02-26T03:14:25;99437.66;;;2.62
48854;BMP280;34673;52.808;17.856;2024-02-26T03:16:55;99432.56;;;2.62
48854;BMP280;34673;52.808;17.856;2024-02-26T03:19:22;99431.66;;;2.56
48854;BMP280;34673;52.808;17.856;2024-02-26T03:21:52;99437.56;;;2.50
48854;BMP280;34673;52.808;17.856;2024-02-26T03:24:19;99432.44;;;2.50
48854;BMP280;34673;52.808;17.856;2024-02-26T03:26:47;99429.03;;;2.48
48854;BMP280;34673;52.808;17.856;2024-02-26T03:29:14;99425.56;;;2.43
48854;BMP280;34673;52.808;17.856;2024-02-26T03:31:41;99420.44;;;2.40
48854;BMP280;34673;52.808;17.856;2024-02-26T03:34:08;99426.41;;;2.42
48854;BMP280;34673;52.808;17.856;2024-02-26T03:36:36;99411.91;;;2.36
48854;BMP280;34673;52.808;17.856;2024-02-26T03:39:03;99416.09;;;2.31
48854;BMP280;34673;52.808;17.856;2024-02-26T03:41:34;99406.63;;;2.22
48854;BMP280;34673;52.808;17.856;2024-02-26T03:44:02;99396.38;;;2.16
48854;BMP280;34673;52.808;17.856;2024-02-26T03:46:29;99408.38;;;2.24
48854;BMP280;34673;52.808;17.856;2024-02-26T03:48:57;99410.16;;;2.31
48854;BMP280;34673;52.808;17.856;2024-02-26T03:51:24;99408.47;;;2.36
48854;BMP280;34673;52.808;17.856;2024-02-26T03:53:51;99411.91;;;2.38
48854;BMP280;34673;52.808;17.856;2024-02-26T03:56:19;99411.09;;;2.42
48854;BMP280;34673;52.808;17.856;2024-02-26T03:58:47;99405.94;;;2.37
48854;BMP280;34673;52.808;17.856;2024-02-26T04:01:14;99413.53;;;2.30
48854;BMP280;34673;52.808;17.856;2024-02-26T04:03:42;99408.38;;;2.24
48854;BMP280;34673;52.808;17.856;2024-02-26T04:06:11;99399.81;;;2.21
48854;BMP280;34673;52.808;17.856;2024-02-26T04:08:41;99409.16;;;2.19
48854;BMP280;34673;52.808;17.856;2024-02-26T04:11:08;99404.03;;;2.16
48854;BMP280;34673;52.808;17.856;2024-02-26T04:13:36;99398.84;;;2.09
48854;BMP280;34673;52.808;17.856;2024-02-26T04:16:06;99405.63;;;2.07
48854;BMP280;34673;52.808;17.856;2024-02-26T04:18:33;99401.34;;;2.04
48854;BMP280;34673;52.808;17.856;2024-02-26T04:21:01;99405.63;;;2.04
48854;BMP280;34673;52.808;17.856;2024-02-26T04:23:29;99410.81;;;2.13
48854;BMP280;34673;52.808;17.856;2024-02-26T04:25:56;99409.09;;;2.13
48854;BMP280;34673;52.808;17.856;2024-02-26T04:28:24;99421.94;;;2.22
48854;BMP280;34673;52.808;17.856;2024-02-26T04:30:58;99410.00;;;2.18
48854;BMP280;34673;52.808;17.856;2024-02-26T04:33:25;99422.00;;;2.26
48854;BMP280;34673;52.808;17.856;2024-02-26T04:35:53;99425.41;;;2.28
48854;BMP280;34673;52.808;17.856;2024-02-26T04:38:20;99418.56;;;2.24
48854;BMP280;34673;52.808;17.856;2024-02-26T04:40:49;99416.78;;;2.16
48854;BMP280;34673;52.808;17.856;2024-02-26T04:43:16;99415.88;;;2.10
48854;BMP280;34673;52.808;17.856;2024-02-26T04:45:45;99425.97;;;2.02
48854;BMP280;34673;52.808;17.856;2024-02-26T04:48:12;99419.06;;;1.92
48854;BMP280;34673;52.808;17.856;2024-02-26T04:50:39;99429.28;;;1.95
48854;BMP280;34673;52.808;17.856;2024-02-26T04:53:06;99433.47;;;1.90
48854;BMP280;34673;52.808;17.856;2024-02-26T04:55:34;99432.69;;;1.94
48854;BMP280;34673;52.808;17.856;2024-02-26T04:58:01;99431.88;;;1.98
48854;BMP280;34673;52.808;17.856;2024-02-26T05:00:28;99431.94;;;2.01
48854;BMP280;34673;52.808;17.856;2024-02-26T05:02:55;99430.19;;;1.97
48854;BMP280;34673;52.808;17.856;2024-02-26T05:05:23;99442.13;;;2.01
48854;BMP280;34673;52.808;17.856;2024-02-26T05:07:50;99442.97;;;1.98
48854;BMP280;34673;52.808;17.856;2024-02-26T05:10:17;99438.75;;;2.02
48854;BMP280;34673;52.808;17.856;2024-02-26T05:12:45;99448.91;;;1.99
48854;BMP280;34673;52.808;17.856;2024-02-26T05:15:12;99442.81;;;1.89
48854;BMP280;34673;52.808;17.856;2024-02-26T05:17:45;99452.13;;;1.83
48854;BMP280;34673;52.808;17.856;2024-02-26T05:20:12;99452.94;;;1.82
48854;BMP280;34673;52.808;17.856;2024-02-26T05:22:40;99460.56;;;1.82
48854;BMP280;34673;52.808;17.856;2024-02-26T05:25:07;99458.94;;;1.87
48854;BMP280;34673;52.808;17.856;2024-02-26T05:27:34;99454.72;;;1.89
48854;BMP280;34673;52.808;17.856;2024-02-26T05:30:01;99459.88;;;1.92
48854;BMP280;34673;52.808;17.856;2024-02-26T05:32:30;99456.44;;;1.88
48854;BMP280;34673;52.808;17.856;2024-02-26T05:34:57;99469.19;;;1.88
48854;BMP280;34673;52.808;17.856;2024-02-26T05:37:24;99467.41;;;1.83
48854;BMP280;34673;52.808;17.856;2024-02-26T05:39:52;99477.66;;;1.86
48854;BMP280;34673;52.808;17.856;2024-02-26T05:42:20;99484.41;;;1.84
48854;BMP280;34673;52.808;17.856;2024-02-26T05:44:47;99480.94;;;1.78
48854;BMP280;34673;52.808;17.856;2024-02-26T05:47:14;99487.75;;;1.76
48854;BMP280;34673;52.808;17.856;2024-02-26T05:49:41;99487.75;;;1.78
48854;BMP280;34673;52.808;17.856;2024-02-26T05:52:09;99488.59;;;1.77
48854;BMP280;34673;52.808;17.856;2024-02-26T05:54:36;99486.88;;;1.77
48854;BMP280;34673;52.808;17.856;2024-02-26T05:57:03;99477.47;;;1.73
48854;BMP280;34673;52.808;17.856;2024-02-26T05:59:31;99475.84;;;1.78
48854;BMP280;34673;52.808;17.856;2024-02-26T06:01:58;99479.34;;;1.87
48854;BMP280;34673;52.808;17.856;2024-02-26T06:04:25;99480.34;;;1.98
48854;BMP280;34673;52.808;17.856;2024-02-26T06:06:53;99488.94;;;2.05
48854;BMP280;34673;52.808;17.856;2024-02-26T06:09:20;99483.00;;;2.07
48854;BMP280;34673;52.808;17.856;2024-02-26T06:11:47;99486.38;;;2.06
48854;BMP280;34673;52.808;17.856;2024-02-26T06:14:14;99485.53;;;2.04
48854;BMP280;34673;52.808;17.856;2024-02-26T06:16:45;99486.47;;;2.12
48854;BMP280;34673;52.808;17.856;2024-02-26T06:19:12;99479.75;;;2.17
48854;BMP280;34673;52.808;17.856;2024-02-26T06:21:40;99479.78;;;2.20
48854;BMP280;34673;52.808;17.856;2024-02-26T06:24:07;99483.25;;;2.27
48854;BMP280;34673;52.808;17.856;2024-02-26T06:26:35;99481.59;;;2.31
48854;BMP280;34673;52.808;17.856;2024-02-26T06:29:02;99483.28;;;2.32
48854;BMP280;34673;52.808;17.856;2024-02-26T06:31:29;99479.75;;;2.17
48854;BMP280;34673;52.808;17.856;2024-02-26T06:33:56;99487.34;;;2.14
48854;BMP280;34673;52.808;17.856;2024-02-26T06:36:24;99492.41;;;2.11
48854;BMP280;34673;52.808;17.856;2024-02-26T06:38:52;99498.38;;;2.13
48854;BMP280;34673;52.808;17.856;2024-02-26T06:41:21;99498.41;;;2.16
48854;BMP280;34673;52.808;17.856;2024-02-26T06:43:54;99504.38;;;2.17
48854;BMP280;34673;52.808;17.856;2024-02-26T06:46:22;99494.97;;;2.14
48854;BMP280;34673;52.808;17.856;2024-02-26T06:48:49;99490.78;;;2.15
48854;BMP280;34673;52.808;17.856;2024-02-26T06:51:20;99496.78;;;2.21
48854;BMP280;34673;52.808;17.856;2024-02-26T06:53:48;99507.09;;;2.29
48854;BMP280;34673;52.808;17.856;2024-02-26T06:56:16;99504.63;;;2.37
48854;BMP280;34673;52.808;17.856;2024-02-26T06:58:43;99508.94;;;2.44
48854;BMP280;34673;52.808;17.856;2024-02-26T07:01:12;99514.13;;;2.50
48854;BMP280;34673;52.808;17.856;2024-02-26T07:03:42;99509.09;;;2.56
48854;BMP280;34673;52.808;17.856;2024-02-26T07:06:10;99505.69;;;2.57
48854;BMP280;34673;52.808;17.856;2024-02-26T07:08:38;99502.22;;;2.52
48854;BMP280;34673;52.808;17.856;2024-02-26T07:11:08;99521.91;;;2.62
48854;BMP280;34673;52.808;17.856;2024-02-26T07:13:37;99527.94;;;2.66
48854;BMP280;34673;52.808;17.856;2024-02-26T07:16:04;99516.03;;;2.70
48854;BMP280;34673;52.808;17.856;2024-02-26T07:18:32;99515.22;;;2.74
48854;BMP280;34673;52.808;17.856;2024-02-26T07:21:02;99517.84;;;2.80
48854;BMP280;34673;52.808;17.856;2024-02-26T07:23:29;99513.63;;;2.83
48854;BMP280;34673;52.808;17.856;2024-02-26T07:25:57;99503.44;;;2.89
48854;BMP280;34673;52.808;17.856;2024-02-26T07:28:24;99509.50;;;2.96
48854;BMP280;34673;52.808;17.856;2024-02-26T07:30:51;99512.97;;;3.04
48854;BMP280;34673;52.808;17.856;2024-02-26T07:33:18;99515.56;;;3.10
48854;BMP280;34673;52.808;17.856;2024-02-26T07:35:46;99518.19;;;3.20
48854;BMP280;34673;52.808;17.856;2024-02-26T07:38:13;99516.53;;;3.28
48854;BMP280;34673;52.808;17.856;2024-02-26T07:40:57;99515.78;;;3.38
48854;BMP280;34673;52.808;17.856;2024-02-26T07:43:29;99515.81;;;3.44
48854;BMP280;34673;52.808;17.856;2024-02-26T07:45:57;99522.72;;;3.58
48854;BMP280;34673;52.808;17.856;2024-02-26T07:48:24;99525.38;;;3.67
48854;BMP280;34673;52.808;17.856;2024-02-26T07:50:52;99526.25;;;3.73
48854;BMP280;34673;52.808;17.856;2024-02-26T07:53:19;99525.44;;;3.79
48854;BMP280;34673;52.808;17.856;2024-02-26T07:55:46;99528.06;;;3.88
48854;BMP280;34673;52.808;17.856;2024-02-26T07:58:14;99516.97;;;3.95
48854;BMP280;34673;52.808;17.856;2024-02-26T08:00:41;99527.31;;;4.11
48854;BMP280;34673;52.808;17.856;2024-02-26T08:03:08;99532.47;;;4.23
48854;BMP280;34673;52.808;17.856;2024-02-26T08:05:36;99534.22;;;4.36
48854;BMP280;34673;52.808;17.856;2024-02-26T08:08:07;99530.84;;;4.47
48854;BMP280;34673;52.808;17.856;2024-02-26T08:10:34;99537.72;;;4.60
48854;BMP280;34673;52.808;17.856;2024-02-26T08:13:02;99546.28;;;4.66
48854;BMP280;34673;52.808;17.856;2024-02-26T08:15:33;99539.47;;;4.73
48854;BMP280;34673;52.808;17.856;2024-02-26T08:18:04;99530.97;;;4.86
48854;BMP280;34673;52.808;17.856;2024-02-26T08:20:32;99542.94;;;5.03
48854;BMP280;34673;52.808;17.856;2024-02-26T08:22:59;99547.22;;;5.18
48854;BMP280;34673;52.808;17.856;2024-02-26T08:25:26;99542.13;;;5.30
48854;BMP280;34673;52.808;17.856;2024-02-26T08:27:54;99544.66;;;5.50
48854;BMP280;34673;52.808;17.856;2024-02-26T08:30:21;99542.94;;;5.64
48854;BMP280;34673;52.808;17.856;2024-02-26T08:32:48;99534.38;;;5.74
48854;BMP280;34673;52.808;17.856;2024-02-26T08:35:18;99556.59;;;5.97
48854;BMP280;34673;52.808;17.856;2024-02-26T08:37:47;99556.53;;;6.18
48854;BMP280;34673;52.808;17.856;2024-02-26T08:40:15;99553.91;;;6.40
48854;BMP280;34673;52.808;17.856;2024-02-26T08:42:42;99547.81;;;6.62
48854;BMP280;34673;52.808;17.856;2024-02-26T08:45:09;99547.69;;;6.81
48854;BMP280;34673;52.808;17.856;2024-02-26T08:47:37;99537.31;;;6.99
48854;BMP280;34673;52.808;17.856;2024-02-26T08:50:05;99538.88;;;7.19
48854;BMP280;34673;52.808;17.856;2024-02-26T08:52:32;99539.63;;;7.36
48854;BMP280;34673;52.808;17.856;2024-02-26T08:55:00;99535.16;;;7.53
48854;BMP280;34673;52.808;17.856;2024-02-26T08:57:27;99534.19;;;7.68
48854;BMP280;34673;52.808;17.856;2024-02-26T08:59:54;99533.19;;;7.83
48854;BMP280;34673;52.808;17.856;2024-02-26T09:02:22;99539.91;;;7.96
48854;BMP280;34673;52.808;17.856;2024-02-26T09:04:49;99544.09;;;8.07
48854;BMP280;34673;52.808;17.856;2024-02-26T09:07:18;99548.28;;;8.14
48854;BMP280;34673;52.808;17.856;2024-02-26T09:09:45;99537.94;;;8.20
48854;BMP280;34673;52.808;17.856;2024-02-26T09:12:12;99547.16;;;8.42
48854;BMP280;34673;52.808;17.856;2024-02-26T09:14:40;99546.22;;;8.48
48854;BMP280;34673;52.808;17.856;2024-02-26T09:17:07;99546.06;;;8.59
48854;BMP280;34673;52.808;17.856;2024-02-26T09:19:34;99544.19;;;8.70
48854;BMP280;34673;52.808;17.856;2024-02-26T09:22:02;99552.63;;;8.81
48854;BMP280;34673;52.808;17.856;2024-02-26T09:24:29;99549.06;;;8.92
48854;BMP280;34673;52.808;17.856;2024-02-26T09:26:56;99545.53;;;8.99
48854;BMP280;34673;52.808;17.856;2024-02-26T09:29:23;99547.09;;;9.09
48854;BMP280;34673;52.808;17.856;2024-02-26T09:31:53;99546.91;;;9.21
48854;BMP280;34673;52.808;17.856;2024-02-26T09:34:20;99554.44;;;9.35
48854;BMP280;34673;52.808;17.856;2024-02-26T09:36:47;99543.03;;;9.47
48854;BMP280;34673;52.808;17.856;2024-02-26T09:39:14;99540.38;;;9.53
48854;BMP280;34673;52.808;17.856;2024-02-26T09:41:47;99549.66;;;9.63
48854;BMP280;34673;52.808;17.856;2024-02-26T09:44:21;99550.41;;;9.70
48854;BMP280;34673;52.808;17.856;2024-02-26T09:46:49;99551.34;;;9.66
48854;BMP280;34673;52.808;17.856;2024-02-26T09:49:20;99557.34;;;9.68
48854;BMP280;34673;52.808;17.856;2024-02-26T09:51:49;99556.44;;;9.70
48854;BMP280;34673;52.808;17.856;2024-02-26T09:54:17;99549.41;;;9.79
48854;BMP280;34673;52.808;17.856;2024-02-26T09:56:47;99549.22;;;9.88
48854;BMP280;34673;52.808;17.856;2024-02-26T09:59:36;99549.00;;;10.00
48854;BMP280;34673;52.808;17.856;2024-02-26T10:02:17;99554.13;;;10.03
48854;BMP280;34673;52.808;17.856;2024-02-26T10:04:47;99545.38;;;10.10
48854;BMP280;34673;52.808;17.856;2024-02-26T10:07:18;99552.16;;;10.14
48854;BMP280;34673;52.808;17.856;2024-02-26T10:09:46;99540.84;;;10.21
48854;BMP280;34673;52.808;17.856;2024-02-26T10:12:15;99549.34;;;10.30
48854;BMP280;34673;52.808;17.856;2024-02-26T10:14:44;99558.78;;;10.31
48854;BMP280;34673;52.808;17.856;2024-02-26T10:17:12;99553.53;;;10.34
48854;BMP280;34673;52.808;17.856;2024-02-26T10:19:39;99552.63;;;10.36
48854;BMP280;34673;52.808;17.856;2024-02-26T10:22:06;99549.91;;;10.44
48854;BMP280;34673;52.808;17.856;2024-02-26T10:24:34;99546.25;;;10.54
48854;BMP280;34673;52.808;17.856;2024-02-26T10:27:02;99551.47;;;10.51
48854;BMP280;34673;52.808;17.856;2024-02-26T10:29:30;99541.22;;;10.48
48854;BMP280;34673;52.808;17.856;2024-02-26T10:31:57;99557.41;;;10.56
48854;BMP280;34673;52.808;17.856;2024-02-26T10:34:24;99546.09;;;10.60
48854;BMP280;34673;52.808;17.856;2024-02-26T10:36:53;99549.31;;;10.72
48854;BMP280;34673;52.808;17.856;2024-02-26T10:39:21;99561.31;;;10.76
48854;BMP280;34673;52.808;17.856;2024-02-26T10:41:49;99554.41;;;10.75
48854;BMP280;34673;52.808;17.856;2024-02-26T10:44:17;99550.13;;;10.74
48854;BMP280;34673;52.808;17.856;2024-02-26T10:46:48;99540.53;;;10.79
48854;BMP280;34673;52.808;17.856;2024-02-26T10:49:19;99540.47;;;10.82
48854;BMP280;34673;52.808;17.856;2024-02-26T10:51:58;99550.59;;;10.93
48854;BMP280;34673;52.808;17.856;2024-02-26T10:54:26;99548.00;;;10.93
48854;BMP280;34673;52.808;17.856;2024-02-26T10:56:57;99538.56;;;10.90
48854;BMP280;34673;52.808;17.856;2024-02-26T10:59:26;99536.88;;;10.89
48854;BMP280;34673;52.808;17.856;2024-02-26T11:01:54;99533.38;;;10.90
48854;BMP280;34673;52.808;17.856;2024-02-26T11:04:23;99531.63;;;10.92
48854;BMP280;34673;52.808;17.856;2024-02-26T11:06:54;99527.28;;;10.93
48854;BMP280;34673;52.808;17.856;2024-02-26T11:09:24;99528.06;;;10.96
48854;BMP280;34673;52.808;17.856;2024-02-26T11:11:53;99524.75;;;10.91
48854;BMP280;34673;52.808;17.856;2024-02-26T11:14:22;99526.53;;;10.89
48854;BMP280;34673;52.808;17.856;2024-02-26T11:16:54;99534.06;;;10.98
48854;BMP280;34673;52.808;17.856;2024-02-26T11:19:24;99523.72;;;10.98
48854;BMP280;34673;52.808;17.856;2024-02-26T11:21:52;99536.56;;;11.01
48854;BMP280;34673;52.808;17.856;2024-02-26T11:24:19;99525.47;;;10.98
48854;BMP280;34673;52.808;17.856;2024-02-26T11:26:52;99529.78;;;10.97
48854;BMP280;34673;52.808;17.856;2024-02-26T11:29:38;99538.38;;;10.99
48854;BMP280;34673;52.808;17.856;2024-02-26T11:32:06;99534.06;;;10.98
48854;BMP280;34673;52.808;17.856;2024-02-26T11:34:34;99541.75;;;11.01
48854;BMP280;34673;52.808;17.856;2024-02-26T11:37:11;99531.41;;;11.01
48854;BMP280;34673;52.808;17.856;2024-02-26T11:39:43;99523.56;;;11.04
48854;BMP280;34673;52.808;17.856;2024-02-26T11:42:16;99527.81;;;11.07
48854;BMP280;34673;52.808;17.856;2024-02-26T11:44:43;99532.06;;;11.11
48854;BMP280;34673;52.808;17.856;2024-02-26T11:47:21;99524.19;;;11.16
48854;BMP280;34673;52.808;17.856;2024-02-26T11:49:49;99524.03;;;11.22
48854;BMP280;34673;52.808;17.856;2024-02-26T11:52:16;99526.63;;;11.22
48854;BMP280;34673;52.808;17.856;2024-02-26T11:54:56;99525.72;;;11.23
48854;BMP280;34673;52.808;17.856;2024-02-26T11:57:44;99524.84;;;11.24
48854;BMP280;34673;52.808;17.856;2024-02-26T12:00:13;99521.41;;;11.23
48854;BMP280;34673;52.808;17.856;2024-02-26T12:02:44;99523.97;;;11.25
48854;BMP280;34673;52.808;17.856;2024-02-26T12:05:17;99519.69;;;11.22
48854;BMP280;34673;52.808;17.856;2024-02-26T12:08:01;99519.84;;;11.16
48854;BMP280;34673;52.808;17.856;2024-02-26T12:10:36;99518.94;;;11.19
48854;BMP280;34673;52.808;17.856;2024-02-26T12:13:16;99519.88;;;11.15
48854;BMP280;34673;52.808;17.856;2024-02-26T12:15:55;99507.84;;;11.14
48854;BMP280;34673;52.808;17.856;2024-02-26T12:18:23;99513.69;;;11.22
48854;BMP280;34673;52.808;17.856;2024-02-26T12:21:03;99512.69;;;11.27
48854;BMP280;34673;52.808;17.856;2024-02-26T12:23:31;99515.09;;;11.34
48854;BMP280;34673;52.808;17.856;2024-02-26T12:25:59;99520.25;;;11.35
48854;BMP280;34673;52.808;17.856;2024-02-26T12:28:28;99522.66;;;11.43
48854;BMP280;34673;52.808;17.856;2024-02-26T12:30:56;99519.06;;;11.48
48854;BMP280;34673;52.808;17.856;2024-02-26T12:33:27;99518.16;;;11.49
48854;BMP280;34673;52.808;17.856;2024-02-26T12:35:56;99516.41;;;11.51
48854;BMP280;34673;52.808;17.856;2024-02-26T12:38:24;99519.72;;;11.57
48854;BMP280;34673;52.808;17.856;2024-02-26T12:40:52;99519.66;;;11.60
48854;BMP280;34673;52.808;17.856;2024-02-26T12:43:20;99522.97;;;11.65
48854;BMP280;34673;52.808;17.856;2024-02-26T12:45:47;99516.78;;;11.70
48854;BMP280;34673;52.808;17.856;2024-02-26T12:48:14;99518.56;;;11.68
48854;BMP280;34673;52.808;17.856;2024-02-26T12:50:46;99523.06;;;11.62
48854;BMP280;34673;52.808;17.856;2024-02-26T12:53:16;99523.19;;;11.56
48854;BMP280;34673;52.808;17.856;2024-02-26T12:55:44;99511.31;;;11.48
48854;BMP280;34673;52.808;17.856;2024-02-26T12:58:12;99515.78;;;11.42
48854;BMP280;34673;52.808;17.856;2024-02-26T13:00:40;99515.00;;;11.38
48854;BMP280;34673;52.808;17.856;2024-02-26T13:03:08;99524.53;;;11.36
48854;BMP280;34673;52.808;17.856;2024-02-26T13:05:36;99527.88;;;11.41
48854;BMP280;34673;52.808;17.856;2024-02-26T13:08:04;99516.47;;;11.48
48854;BMP280;34673;52.808;17.856;2024-02-26T13:10:35;99525.00;;;11.53
48854;BMP280;34673;52.808;17.856;2024-02-26T13:13:03;99521.34;;;11.61
48854;BMP280;34673;52.808;17.856;2024-02-26T13:15:31;99510.13;;;11.60
48854;BMP280;34673;52.808;17.856;2024-02-26T13:18:09;99514.38;;;11.63
48854;BMP280;34673;52.808;17.856;2024-02-26T13:20:37;99524.75;;;11.63
48854;BMP280;34673;52.808;17.856;2024-02-26T13:23:09;99517.88;;;11.62
48854;BMP280;34673;52.808;17.856;2024-02-26T13:25:38;99511.78;;;11.63
48854;BMP280;34673;52.808;17.856;2024-02-26T13:28:15;99512.69;;;11.62
48854;BMP280;34673;52.808;17.856;2024-02-26T13:30:53;99514.47;;;11.60
48854;BMP280;34673;52.808;17.856;2024-02-26T13:33:24;99524.03;;;11.56
48854;BMP280;34673;52.808;17.856;2024-02-26T13:35:52;99512.03;;;11.53
48854;BMP280;34673;52.808;17.856;2024-02-26T13:38:20;99516.41;;;11.51
48854;BMP280;34673;52.808;17.856;2024-02-26T13:40:47;99519.00;;;11.50
48854;BMP280;34673;52.808;17.856;2024-02-26T13:43:15;99519.94;;;11.47
48854;BMP280;34673;52.808;17.856;2024-02-26T13:45:42;99521.59;;;11.51
48854;BMP280;34673;52.808;17.856;2024-02-26T13:48:11;99523.34;;;11.49
48854;BMP280;34673;52.808;17.856;2024-02-26T13:50:40;99527.75;;;11.46
48854;BMP280;34673;52.808;17.856;2024-02-26T13:53:07;99526.03;;;11.45
48854;BMP280;34673;52.808;17.856;2024-02-26T13:55:35;99530.47;;;11.41
48854;BMP280;34673;52.808;17.856;2024-02-26T13:58:03;99530.53;;;11.38
48854;BMP280;34673;52.808;17.856;2024-02-26T14:00:31;99530.53;;;11.38
48854;BMP280;34673;52.808;17.856;2024-02-26T14:03:01;99530.63;;;11.35
48854;BMP280;34673;52.808;17.856;2024-02-26T14:05:30;99526.44;;;11.29
48854;BMP280;34673;52.808;17.856;2024-02-26T14:07:57;99530.69;;;11.32
48854;BMP280;34673;52.808;17.856;2024-02-26T14:10:25;99528.13;;;11.30
48854;BMP280;34673;52.808;17.856;2024-02-26T14:12:53;99517.88;;;11.26